Time,TemperatureF,DewpointF,PressureIn,WindDirection,WindDirectionDegrees,WindSpeedMPH,WindSpeedGustMPH,Humidity,HourlyPrecipIn,Conditions,Clouds,dailyrainin,SoftwareType,DateUTC
2013-09-24 00:00:00,56.6,51.2,29.88,ESE,120,5.0,13.0,82,0.00,,,0.00,VWS V14.01,2013-09-24 05:00:00,
2013-09-24 00:01:00,54.9,50.5,29.88,ESE,110,5.0,6.0,85,0.00,,CLR,0.00,VWS V14.01,2013-09-24 05:01:00,
2013-09-24 00:06:00,54.9,50.5,29.88,ESE,107,5.0,9.0,85,0.00,,CLR,0.00,VWS V14.01,2013-09-24 05:06:00,
2013-09-24 00:11:00,54.7,50.3,29.88,ESE,123,5.0,9.0,85,0.00,,CLR,0.00,VWS V14.01,2013-09-24 05:11:00,
2013-09-24 00:16:00,54.4,50.3,29.89,ESE,108,4.0,9.0,86,0.00,,CLR,0.00,VWS V14.01,2013-09-24 05:16:00,
2013-09-24 00:21:00,54.0,50.2,29.89,SE,136,6.0,9.0,87,0.00,,CLR,0.00,VWS V14.01,2013-09-24 05:21:00,
2013-09-24 00:26:00,54.1,50.3,29.89,ESE,111,6.0,9.0,87,0.00,,CLR,0.00,VWS V14.01,2013-09-24 05:26:00,
2013-09-24 00:30:00,56.0,50.9,29.88,ESE,108,8.0,12.0,83,0.00,,,0.00,VWS V14.01,2013-09-24 05:30:00,
2013-09-24 00:31:00,54.3,50.2,29.88,East,101,7.0,8.0,86,0.00,,CLR,0.00,VWS V14.01,2013-09-24 05:31:00,
2013-09-24 00:36:00,54.4,50.3,29.88,ESE,116,8.0,13.0,86,0.00,,CLR,0.00,VWS V14.01,2013-09-24 05:36:00,
2013-09-24 00:41:00,54.2,50.1,29.88,East,101,9.0,13.0,86,0.00,,CLR,0.00,VWS V14.01,2013-09-24 05:41:00,
2013-09-24 00:46:00,54.1,50.3,29.88,ESE,108,7.0,13.0,87,0.00,,CLR,0.00,VWS V14.01,2013-09-24 05:46:00,
2013-09-24 00:51:00,54.1,50.3,29.88,ESE,104,6.0,13.0,87,0.00,,CLR,0.00,VWS V14.01,2013-09-24 05:51:00,
2013-09-24 00:56:00,54.2,50.1,29.88,East,97,7.0,13.0,86,0.00,,CLR,0.00,VWS V14.01,2013-09-24 05:56:00,
2013-09-24 01:00:00,54.9,50.5,29.88,ESE,120,6.0,12.0,85,0.00,,,0.00,VWS V14.01,2013-09-24 06:00:00,
2013-09-24 01:01:00,54.1,50.0,29.88,ESE,110,6.0,7.0,86,0.00,,CLR,0.00,VWS V14.01,2013-09-24 06:01:00,
2013-09-24 01:06:00,54.1,50.0,29.88,ESE,108,6.0,10.0,86,0.00,,CLR,0.00,VWS V14.01,2013-09-24 06:06:00,
2013-09-24 01:11:00,54.1,50.0,29.89,East,83,8.0,11.0,86,0.00,,CLR,0.00,VWS V14.01,2013-09-24 06:11:00,
2013-09-24 01:16:00,53.9,50.1,29.88,ESE,116,6.0,11.0,87,0.00,,CLR,0.00,VWS V14.01,2013-09-24 06:16:00,
2013-09-24 01:21:00,53.7,49.9,29.89,ESE,111,7.0,11.0,87,0.00,,CLR,0.00,VWS V14.01,2013-09-24 06:21:00,
2013-09-24 01:26:00,53.7,49.9,29.88,ESE,118,8.0,11.0,87,0.00,,CLR,0.00,VWS V14.01,2013-09-24 06:26:00,
2013-09-24 01:30:00,54.3,50.2,29.88,ESE,115,6.0,10.0,86,0.00,,,0.00,VWS V14.01,2013-09-24 06:30:00,
2013-09-24 01:31:00,53.6,49.8,29.88,ESE,113,9.0,10.0,87,0.00,,CLR,0.00,VWS V14.01,2013-09-24 06:31:00,
2013-09-24 01:36:00,53.5,49.7,29.88,ESE,103,8.0,11.0,87,0.00,,CLR,0.00,VWS V14.01,2013-09-24 06:36:00,
2013-09-24 01:41:00,53.4,49.9,29.88,SE,124,6.0,11.0,88,0.00,,CLR,0.00,VWS V14.01,2013-09-24 06:41:00,
2013-09-24 01:46:00,53.2,49.7,29.88,East,89,6.0,11.0,88,0.00,,CLR,0.00,VWS V14.01,2013-09-24 06:46:00,
2013-09-24 01:51:00,53.2,49.7,29.88,ESE,106,8.0,11.0,88,0.00,,CLR,0.00,VWS V14.01,2013-09-24 06:51:00,
2013-09-24 01:56:00,53.1,49.7,29.88,East,96,7.0,11.0,88,0.00,,CLR,0.00,VWS V14.01,2013-09-24 06:56:00,
2013-09-24 02:00:00,54.1,50.0,29.88,SE,129,6.0,13.0,86,0.00,,,0.00,VWS V14.01,2013-09-24 07:00:00,
2013-09-24 02:01:00,53.0,49.5,29.89,ESE,110,7.0,8.0,88,0.00,,CLR,0.00,VWS V14.01,2013-09-24 07:01:00,
2013-09-24 02:06:00,52.9,49.5,29.89,East,101,5.0,10.0,88,0.00,,CLR,0.00,VWS V14.01,2013-09-24 07:06:00,
2013-09-24 02:11:00,52.8,49.3,29.89,ESE,106,5.0,11.0,88,0.00,,CLR,0.00,VWS V14.01,2013-09-24 07:11:00,
2013-09-24 02:16:00,52.8,49.3,29.88,East,101,4.0,11.0,88,0.00,,CLR,0.00,VWS V14.01,2013-09-24 07:16:00,
2013-09-24 02:21:00,52.6,49.2,29.88,ESE,106,7.0,11.0,88,0.00,,CLR,0.00,VWS V14.01,2013-09-24 07:21:00,
2013-09-24 02:26:00,52.6,49.2,29.88,East,93,6.0,11.0,88,0.00,,CLR,0.00,VWS V14.01,2013-09-24 07:26:00,
2013-09-24 02:30:00,53.6,49.8,29.88,ESE,112,10.0,11.0,87,0.00,,,0.00,VWS V14.01,2013-09-24 07:30:00,
2013-09-24 02:31:00,52.5,49.0,29.88,ESE,111,5.0,7.0,88,0.00,,CLR,0.00,VWS V14.01,2013-09-24 07:31:00,
2013-09-24 02:36:00,52.4,49.0,29.88,SE,124,5.0,9.0,88,0.00,,CLR,0.00,VWS V14.01,2013-09-24 07:36:00,
2013-09-24 02:41:00,52.3,48.9,29.88,ESE,113,6.0,9.0,88,0.00,,CLR,0.00,VWS V14.01,2013-09-24 07:41:00,
2013-09-24 02:46:00,52.2,48.8,29.87,ESE,115,3.0,9.0,88,0.00,,CLR,0.00,VWS V14.01,2013-09-24 07:46:00,
2013-09-24 02:51:00,52.1,49.0,29.88,East,88,5.0,9.0,89,0.00,,CLR,0.00,VWS V14.01,2013-09-24 07:51:00,
2013-09-24 02:56:00,52.0,48.9,29.87,East,84,2.0,9.0,89,0.00,,CLR,0.00,VWS V14.01,2013-09-24 07:56:00,
2013-09-24 03:00:00,53.0,49.5,29.89,ESE,106,8.0,11.0,88,0.00,,,0.00,VWS V14.01,2013-09-24 08:00:00,
2013-09-24 03:01:00,52.0,48.9,29.87,East,82,1.0,5.0,89,0.00,,CLR,0.00,VWS V14.01,2013-09-24 08:01:00,
2013-09-24 03:06:00,51.9,48.8,29.87,East,89,3.0,8.0,89,0.00,,CLR,0.00,VWS V14.01,2013-09-24 08:06:00,
2013-09-24 03:11:00,51.8,48.7,29.87,ESE,106,6.0,8.0,89,0.00,,CLR,0.00,VWS V14.01,2013-09-24 08:11:00,
2013-09-24 03:16:00,51.8,48.7,29.87,East,91,1.0,10.0,89,0.00,,CLR,0.00,VWS V14.01,2013-09-24 08:16:00,
2013-09-24 03:21:00,51.8,48.7,29.87,SE,132,3.0,10.0,89,0.00,,CLR,0.00,VWS V14.01,2013-09-24 08:21:00,
2013-09-24 03:26:00,51.8,48.7,29.87,East,98,3.0,10.0,89,0.00,,CLR,0.00,VWS V14.01,2013-09-24 08:26:00,
2013-09-24 03:30:00,52.5,49.1,29.88,East,83,6.0,11.0,88,0.00,,,0.00,VWS V14.01,2013-09-24 08:30:00,
2013-09-24 03:31:00,51.8,48.7,29.87,East,89,2.0,6.0,89,0.00,,CLR,0.00,VWS V14.01,2013-09-24 08:31:00,
2013-09-24 03:36:00,51.7,48.6,29.87,ESE,106,4.0,10.0,89,0.00,,CLR,0.00,VWS V14.01,2013-09-24 08:36:00,
2013-09-24 03:41:00,51.7,48.6,29.87,ESE,107,3.0,10.0,89,0.00,,CLR,0.00,VWS V14.01,2013-09-24 08:41:00,
2013-09-24 03:46:00,51.7,48.3,29.87,East,86,4.0,10.0,88,0.00,,CLR,0.00,VWS V14.01,2013-09-24 08:46:00,
2013-09-24 03:51:00,51.7,48.3,29.87,ESE,112,3.0,10.0,88,0.00,,CLR,0.00,VWS V14.01,2013-09-24 08:51:00,
2013-09-24 03:56:00,51.6,48.5,29.87,ENE,62,4.0,10.0,89,0.00,,CLR,0.00,VWS V14.01,2013-09-24 08:56:00,
2013-09-24 04:00:00,52.0,48.9,29.87,ESE,106,6.0,9.0,89,0.00,,,0.00,VWS V14.01,2013-09-24 09:00:00,
2013-09-24 04:01:00,51.6,48.5,29.86,ESE,103,4.0,8.0,89,0.00,,CLR,0.00,VWS V14.01,2013-09-24 09:01:00,
2013-09-24 04:06:00,51.5,48.4,29.87,ESE,120,5.0,8.0,89,0.00,,CLR,0.00,VWS V14.01,2013-09-24 09:06:00,
2013-09-24 04:11:00,51.5,48.4,29.87,East,100,3.0,9.0,89,0.00,,CLR,0.00,VWS V14.01,2013-09-24 09:11:00,
2013-09-24 04:16:00,51.3,48.2,29.87,ESE,106,5.0,9.0,89,0.00,,CLR,0.00,VWS V14.01,2013-09-24 09:16:00,
2013-09-24 04:21:00,51.3,48.2,29.87,ESE,102,6.0,9.0,89,0.00,,CLR,0.00,VWS V14.01,2013-09-24 09:21:00,
2013-09-24 04:26:00,51.4,48.3,29.87,East,84,6.0,9.0,89,0.00,,CLR,0.00,VWS V14.01,2013-09-24 09:26:00,
2013-09-24 04:30:00,51.8,48.7,29.87,East,97,4.0,10.0,89,0.00,,,0.00,VWS V14.01,2013-09-24 09:30:00,
2013-09-24 04:31:00,51.3,48.2,29.87,ESE,117,6.0,6.0,89,0.00,,CLR,0.00,VWS V14.01,2013-09-24 09:31:00,
2013-09-24 04:36:00,51.3,48.2,29.87,ESE,115,6.0,10.0,89,0.00,,CLR,0.00,VWS V14.01,2013-09-24 09:36:00,
2013-09-24 04:41:00,51.3,48.2,29.87,ESE,113,6.0,10.0,89,0.00,,CLR,0.00,VWS V14.01,2013-09-24 09:41:00,
2013-09-24 04:46:00,51.1,48.0,29.87,ESE,107,7.0,10.0,89,0.00,,CLR,0.00,VWS V14.01,2013-09-24 09:46:00,
2013-09-24 04:51:00,51.0,47.9,29.87,ESE,118,5.0,10.0,89,0.00,,CLR,0.00,VWS V14.01,2013-09-24 09:51:00,
2013-09-24 04:56:00,50.9,47.8,29.86,East,97,7.0,10.0,89,0.00,,CLR,0.00,VWS V14.01,2013-09-24 09:56:00,
2013-09-24 05:00:00,51.5,48.4,29.86,ESE,110,7.0,10.0,89,0.00,,,0.00,VWS V14.01,2013-09-24 10:00:00,
2013-09-24 05:01:00,50.9,47.8,29.87,SE,129,8.0,9.0,89,0.00,,CLR,0.00,VWS V14.01,2013-09-24 10:01:00,
2013-09-24 05:06:00,51.0,47.9,29.87,SE,138,6.0,9.0,89,0.00,,CLR,0.00,VWS V14.01,2013-09-24 10:06:00,
2013-09-24 05:11:00,50.9,47.8,29.87,East,94,7.0,10.0,89,0.00,,CLR,0.00,VWS V14.01,2013-09-24 10:11:00,
2013-09-24 05:16:00,50.9,47.8,29.86,East,91,6.0,10.0,89,0.00,,CLR,0.00,VWS V14.01,2013-09-24 10:16:00,
2013-09-24 05:21:00,50.9,47.8,29.86,East,93,8.0,10.0,89,0.00,,CLR,0.00,VWS V14.01,2013-09-24 10:21:00,
2013-09-24 05:26:00,50.8,47.7,29.86,ESE,110,8.0,10.0,89,0.00,,CLR,0.00,VWS V14.01,2013-09-24 10:26:00,
2013-09-24 05:30:00,51.3,48.2,29.87,ESE,111,6.0,10.0,89,0.00,,,0.00,VWS V14.01,2013-09-24 10:30:00,
2013-09-24 05:31:00,50.7,47.6,29.86,ESE,121,7.0,8.0,89,0.00,,CLR,0.00,VWS V14.01,2013-09-24 10:31:00,
2013-09-24 05:36:00,50.7,47.6,29.86,ESE,111,6.0,10.0,89,0.00,,CLR,0.00,VWS V14.01,2013-09-24 10:36:00,
2013-09-24 05:41:00,50.6,47.5,29.86,ESE,113,6.0,11.0,89,0.00,,CLR,0.00,VWS V14.01,2013-09-24 10:41:00,
2013-09-24 05:46:00,50.5,47.4,29.86,East,99,8.0,12.0,89,0.00,,CLR,0.00,VWS V14.01,2013-09-24 10:46:00,
2013-09-24 05:51:00,50.4,47.6,29.86,East,96,9.0,12.0,90,0.00,,CLR,0.00,VWS V14.01,2013-09-24 10:51:00,
2013-09-24 05:56:00,50.3,47.5,29.86,ESE,111,7.0,12.0,90,0.00,,CLR,0.00,VWS V14.01,2013-09-24 10:56:00,
2013-09-24 06:00:00,50.9,47.8,29.87,East,101,9.0,10.0,89,0.00,,,0.00,VWS V14.01,2013-09-24 11:00:00,
2013-09-24 06:01:00,50.2,47.4,29.86,ESE,117,6.0,7.0,90,0.00,,CLR,0.00,VWS V14.01,2013-09-24 11:01:00,
2013-09-24 06:06:00,50.2,47.4,29.86,East,96,7.0,10.0,90,0.00,,CLR,0.00,VWS V14.01,2013-09-24 11:06:00,
2013-09-24 06:11:00,50.1,47.3,29.86,ESE,111,6.0,10.0,90,0.00,,CLR,0.00,VWS V14.01,2013-09-24 11:11:00,
2013-09-24 06:16:00,50.1,47.3,29.86,ESE,105,6.0,10.0,90,0.00,,CLR,0.00,VWS V14.01,2013-09-24 11:16:00,
2013-09-24 06:21:00,50.0,47.2,29.86,ESE,111,5.0,10.0,90,0.00,,CLR,0.00,VWS V14.01,2013-09-24 11:21:00,
2013-09-24 06:26:00,49.9,47.1,29.87,ESE,102,7.0,10.0,90,0.00,,CLR,0.00,VWS V14.01,2013-09-24 11:26:00,
2013-09-24 06:30:00,50.7,47.6,29.86,ENE,75,8.0,10.0,89,0.00,,,0.00,VWS V14.01,2013-09-24 11:30:00,
2013-09-24 06:31:00,49.8,47.0,29.87,ESE,108,7.0,7.0,90,0.00,,CLR,0.00,VWS V14.01,2013-09-24 11:31:00,
2013-09-24 06:36:00,49.8,47.0,29.87,SE,124,6.0,8.0,90,0.00,,CLR,0.00,VWS V14.01,2013-09-24 11:36:00,
2013-09-24 06:41:00,49.7,46.9,29.87,East,97,8.0,9.0,90,0.00,,CLR,0.00,VWS V14.01,2013-09-24 11:41:00,
2013-09-24 06:46:00,49.7,46.9,29.87,East,97,5.0,10.0,90,0.00,,CLR,0.00,VWS V14.01,2013-09-24 11:46:00,
2013-09-24 06:51:00,49.7,46.9,29.87,East,91,6.0,10.0,90,0.00,,CLR,0.00,VWS V14.01,2013-09-24 11:51:00,
2013-09-24 06:56:00,49.7,46.9,29.87,East,91,4.0,10.0,90,0.00,,CLR,0.00,VWS V14.01,2013-09-24 11:56:00,
2013-09-24 07:00:00,50.2,47.4,29.86,East,98,7.0,12.0,90,0.00,,,0.00,VWS V14.01,2013-09-24 12:00:00,
2013-09-24 07:01:00,49.6,46.8,29.88,East,86,6.0,6.0,90,0.00,,CLR,0.00,VWS V14.01,2013-09-24 12:01:00,
2013-09-24 07:06:00,49.6,46.8,29.87,East,99,5.0,10.0,90,0.00,,CLR,0.00,VWS V14.01,2013-09-24 12:06:00,
2013-09-24 07:11:00,49.5,46.7,29.88,East,101,4.0,10.0,90,0.00,,CLR,0.00,VWS V14.01,2013-09-24 12:11:00,
2013-09-24 07:16:00,49.5,47.0,29.88,East,91,2.0,10.0,91,0.00,,CLR,0.00,VWS V14.01,2013-09-24 12:16:00,
2013-09-24 07:21:00,49.5,47.0,29.88,ENE,72,4.0,10.0,91,0.00,,CLR,0.00,VWS V14.01,2013-09-24 12:21:00,
2013-09-24 07:26:00,49.6,47.1,29.88,ENE,72,5.0,10.0,91,0.00,,CLR,0.00,VWS V14.01,2013-09-24 12:26:00,
2013-09-24 07:30:00,49.9,47.1,29.87,SE,124,7.0,10.0,90,0.00,,,0.00,VWS V14.01,2013-09-24 12:30:00,
2013-09-24 07:31:00,49.6,47.1,29.87,ESE,108,5.0,8.0,91,0.00,,CLR,0.00,VWS V14.01,2013-09-24 12:31:00,
2013-09-24 07:36:00,49.9,47.1,29.87,East,91,5.0,10.0,90,0.00,,CLR,0.00,VWS V14.01,2013-09-24 12:36:00,
2013-09-24 07:41:00,50.1,47.3,29.88,ESE,108,6.0,11.0,90,0.00,,CLR,0.00,VWS V14.01,2013-09-24 12:41:00,
2013-09-24 07:46:00,50.4,47.3,29.88,ESE,102,7.0,11.0,89,0.00,,CLR,0.00,VWS V14.01,2013-09-24 12:46:00,
2013-09-24 07:51:00,50.7,47.6,29.88,East,93,4.0,11.0,89,0.00,,CLR,0.00,VWS V14.01,2013-09-24 12:51:00,
2013-09-24 07:56:00,50.9,47.5,29.88,East,96,7.0,11.0,88,0.00,,CLR,0.00,VWS V14.01,2013-09-24 12:56:00,
2013-09-24 08:00:00,49.6,46.8,29.88,SE,127,6.0,10.0,90,0.00,,,0.00,VWS V14.01,2013-09-24 13:00:00,
2013-09-24 08:01:00,51.2,47.8,29.88,ESE,108,7.0,7.0,88,0.00,,CLR,0.00,VWS V14.01,2013-09-24 13:01:00,
2013-09-24 08:06:00,51.5,48.1,29.88,ENE,76,5.0,9.0,88,0.00,,CLR,0.00,VWS V14.01,2013-09-24 13:06:00,
2013-09-24 08:11:00,51.9,48.5,29.88,ESE,107,4.0,10.0,88,0.00,,CLR,0.00,VWS V14.01,2013-09-24 13:11:00,
2013-09-24 08:16:00,52.3,48.5,29.88,East,98,5.0,10.0,87,0.00,,CLR,0.00,VWS V14.01,2013-09-24 13:16:00,
2013-09-24 08:21:00,52.5,48.8,29.88,ESE,111,7.0,11.0,87,0.00,,CLR,0.00,VWS V14.01,2013-09-24 13:21:00,
2013-09-24 08:26:00,52.8,48.7,29.88,ESE,120,10.0,12.0,86,0.00,,CLR,0.00,VWS V14.01,2013-09-24 13:26:00,
2013-09-24 08:30:00,49.6,47.1,29.87,East,98,8.0,10.0,91,0.00,,,0.00,VWS V14.01,2013-09-24 13:30:00,
2013-09-24 08:31:00,53.2,49.1,29.89,ESE,123,5.0,7.0,86,0.00,,CLR,0.00,VWS V14.01,2013-09-24 13:31:00,
2013-09-24 08:36:00,53.6,49.2,29.88,ESE,111,7.0,12.0,85,0.00,,CLR,0.00,VWS V14.01,2013-09-24 13:36:00,
2013-09-24 08:41:00,53.9,49.5,29.88,ESE,112,9.0,13.0,85,0.00,,CLR,0.00,VWS V14.01,2013-09-24 13:41:00,
2013-09-24 08:46:00,54.3,49.9,29.88,ESE,115,8.0,13.0,85,0.00,,CLR,0.00,VWS V14.01,2013-09-24 13:46:00,
2013-09-24 08:51:00,54.7,49.7,29.88,East,98,12.0,14.0,83,0.00,,CLR,0.00,VWS V14.01,2013-09-24 13:51:00,
2013-09-24 08:56:00,55.1,50.0,29.88,ESE,104,11.0,14.0,83,0.00,,CLR,0.00,VWS V14.01,2013-09-24 13:56:00,
2013-09-24 09:00:00,51.2,47.8,29.88,ESE,121,6.0,11.0,88,0.00,,,0.00,VWS V14.01,2013-09-24 14:00:00,
2013-09-24 09:01:00,55.4,50.3,29.88,SE,128,8.0,9.0,83,0.00,,CLR,0.00,VWS V14.01,2013-09-24 14:01:00,
2013-09-24 09:06:00,55.9,50.5,29.88,East,99,10.0,12.0,82,0.00,,CLR,0.00,VWS V14.01,2013-09-24 14:06:00,
2013-09-24 09:11:00,56.3,50.9,29.88,ESE,103,10.0,12.0,82,0.00,,CLR,0.00,VWS V14.01,2013-09-24 14:11:00,
2013-09-24 09:16:00,56.5,50.4,29.89,East,99,13.0,16.0,80,0.00,,CLR,0.00,VWS V14.01,2013-09-24 14:16:00,
2013-09-24 09:21:00,56.7,50.6,29.89,ESE,110,12.0,16.0,80,0.00,,CLR,0.00,VWS V14.01,2013-09-24 14:21:00,
2013-09-24 09:26:00,57.1,51.0,29.89,ESE,118,11.0,16.0,80,0.00,,CLR,0.00,VWS V14.01,2013-09-24 14:26:00,
2013-09-24 09:30:00,53.1,49.0,29.88,ESE,114,7.0,12.0,86,0.00,,,0.00,VWS V14.01,2013-09-24 14:30:00,
2013-09-24 09:31:00,57.3,50.8,29.89,ESE,117,11.0,13.0,79,0.00,,CLR,0.00,VWS V14.01,2013-09-24 14:31:00,
2013-09-24 09:36:00,57.6,51.1,29.89,SE,133,9.0,14.0,79,0.00,,CLR,0.00,VWS V14.01,2013-09-24 14:36:00,
2013-09-24 09:41:00,58.0,51.9,29.89,ESE,121,7.0,14.0,80,0.00,,CLR,0.00,VWS V14.01,2013-09-24 14:41:00,
2013-09-24 09:46:00,58.4,51.6,29.89,ESE,112,9.0,14.0,78,0.00,,CLR,0.00,VWS V14.01,2013-09-24 14:46:00,
2013-09-24 09:51:00,58.4,51.6,29.89,ESE,108,10.0,14.0,78,0.00,,CLR,0.00,VWS V14.01,2013-09-24 14:51:00,
2013-09-24 09:56:00,58.9,52.1,29.90,East,94,7.0,14.0,78,0.00,,CLR,0.00,VWS V14.01,2013-09-24 14:56:00,
2013-09-24 10:00:00,55.4,50.0,29.88,East,89,9.0,14.0,82,0.00,,,0.00,VWS V14.01,2013-09-24 15:00:00,
2013-09-24 10:01:00,59.4,52.2,29.89,ESE,104,9.0,11.0,77,0.00,,CLR,0.00,VWS V14.01,2013-09-24 15:01:00,
2013-09-24 10:06:00,59.7,52.5,29.89,East,99,8.0,11.0,77,0.00,,CLR,0.00,VWS V14.01,2013-09-24 15:06:00,
2013-09-24 10:11:00,60.2,53.0,29.89,ESE,109,7.0,12.0,77,0.00,,CLR,0.00,VWS V14.01,2013-09-24 15:11:00,
2013-09-24 10:16:00,60.6,53.0,29.89,SE,131,8.0,12.0,76,0.00,,CLR,0.00,VWS V14.01,2013-09-24 15:16:00,
2013-09-24 10:21:00,60.9,53.3,29.89,East,98,7.0,12.0,76,0.00,,CLR,0.00,VWS V14.01,2013-09-24 15:21:00,
2013-09-24 10:26:00,61.3,54.0,29.90,East,92,5.0,12.0,77,0.00,,CLR,0.00,VWS V14.01,2013-09-24 15:26:00,
2013-09-24 10:30:00,57.2,51.1,29.89,ESE,103,10.0,16.0,80,0.00,,,0.00,VWS V14.01,2013-09-24 15:30:00,
2013-09-24 10:31:00,61.7,54.1,29.89,NE,50,2.0,4.0,76,0.00,,CLR,0.00,VWS V14.01,2013-09-24 15:31:00,
2013-09-24 10:36:00,62.1,54.1,29.89,ESE,119,5.0,10.0,75,0.00,,CLR,0.00,VWS V14.01,2013-09-24 15:36:00,
2013-09-24 10:41:00,62.6,53.5,29.89,East,87,8.0,11.0,72,0.00,,CLR,0.00,VWS V14.01,2013-09-24 15:41:00,
2013-09-24 10:46:00,62.3,53.9,29.90,ESE,117,8.0,13.0,74,0.00,,CLR,0.00,VWS V14.01,2013-09-24 15:46:00,
2013-09-24 10:51:00,62.7,54.7,29.90,East,83,3.0,13.0,75,0.00,,CLR,0.00,VWS V14.01,2013-09-24 15:51:00,
2013-09-24 10:56:00,63.3,54.1,29.90,ESE,113,4.0,13.0,72,0.00,,CLR,0.00,VWS V14.01,2013-09-24 15:56:00,
2013-09-24 11:00:00,59.3,51.8,29.89,ESE,103,8.0,14.0,76,0.00,,,0.00,VWS V14.01,2013-09-24 16:00:00,
2013-09-24 11:01:00,63.4,54.2,29.90,ESE,120,6.0,6.0,72,0.00,,CLR,0.00,VWS V14.01,2013-09-24 16:01:00,
2013-09-24 11:06:00,63.8,55.0,29.89,East,98,2.0,7.0,73,0.00,,CLR,0.00,VWS V14.01,2013-09-24 16:06:00,
2013-09-24 11:11:00,64.7,55.9,29.89,ESE,117,8.0,9.0,73,0.00,,CLR,0.00,VWS V14.01,2013-09-24 16:11:00,
2013-09-24 11:16:00,64.9,54.5,29.89,ESE,115,9.0,13.0,69,0.00,,CLR,0.00,VWS V14.01,2013-09-24 16:16:00,
2013-09-24 11:21:00,65.0,55.4,29.89,ENE,69,3.0,13.0,71,0.00,,CLR,0.00,VWS V14.01,2013-09-24 16:21:00,
2013-09-24 11:26:00,64.9,54.9,29.89,ESE,104,4.0,15.0,70,0.00,,CLR,0.00,VWS V14.01,2013-09-24 16:26:00,
2013-09-24 11:30:00,61.6,54.0,29.89,ESE,122,3.0,12.0,76,0.00,,,0.00,VWS V14.01,2013-09-24 16:30:00,
2013-09-24 11:31:00,65.0,55.0,29.89,ESE,103,6.0,8.0,70,0.00,,CLR,0.00,VWS V14.01,2013-09-24 16:31:00,
2013-09-24 11:36:00,65.4,55.4,29.88,East,87,6.0,14.0,70,0.00,,CLR,0.00,VWS V14.01,2013-09-24 16:36:00,
2013-09-24 11:41:00,66.3,55.4,29.88,ESE,104,6.0,14.0,68,0.00,,CLR,0.00,VWS V14.01,2013-09-24 16:41:00,
2013-09-24 11:46:00,66.1,54.8,29.87,East,85,9.0,18.0,67,0.00,,CLR,0.00,VWS V14.01,2013-09-24 16:46:00,
2013-09-24 11:51:00,66.1,55.2,29.87,SE,131,7.0,18.0,68,0.00,,CLR,0.00,VWS V14.01,2013-09-24 16:51:00,
2013-09-24 11:56:00,66.2,55.3,29.87,ESE,102,6.0,18.0,68,0.00,,CLR,0.00,VWS V14.01,2013-09-24 16:56:00,
2013-09-24 12:00:00,63.4,54.2,29.90,ESE,109,6.0,13.0,72,0.00,,,0.00,VWS V14.01,2013-09-24 17:00:00,
2013-09-24 12:01:00,66.5,55.2,29.86,ENE,72,6.0,9.0,67,0.00,,CLR,0.00,VWS V14.01,2013-09-24 17:01:00,
2013-09-24 12:06:00,67.1,55.8,29.86,East,86,9.0,18.0,67,0.00,,CLR,0.00,VWS V14.01,2013-09-24 17:06:00,
2013-09-24 12:11:00,67.7,56.0,29.86,ESE,113,9.0,18.0,66,0.00,,CLR,0.00,VWS V14.01,2013-09-24 17:11:00,
2013-09-24 12:16:00,68.1,55.9,29.86,East,86,11.0,18.0,65,0.00,,CLR,0.00,VWS V14.01,2013-09-24 17:16:00,
2013-09-24 12:21:00,68.4,56.6,29.87,NE,55,7.0,18.0,66,0.00,,CLR,0.00,VWS V14.01,2013-09-24 17:21:00,
2013-09-24 12:26:00,68.5,55.9,29.87,SE,143,8.0,18.0,64,0.00,,CLR,0.00,VWS V14.01,2013-09-24 17:26:00,
2013-09-24 12:30:00,65.0,55.0,29.89,East,101,6.0,15.0,70,0.00,,,0.00,VWS V14.01,2013-09-24 17:30:00,
2013-09-24 12:31:00,68.8,56.1,29.87,East,93,6.0,8.0,64,0.00,,CLR,0.00,VWS V14.01,2013-09-24 17:31:00,
2013-09-24 12:36:00,68.9,56.2,29.87,ESE,110,12.0,15.0,64,0.00,,CLR,0.00,VWS V14.01,2013-09-24 17:36:00,
2013-09-24 12:41:00,69.2,57.0,29.87,East,82,6.0,15.0,65,0.00,,CLR,0.00,VWS V14.01,2013-09-24 17:41:00,
2013-09-24 12:46:00,69.5,56.8,29.87,ESE,115,7.0,17.0,64,0.00,,CLR,0.00,VWS V14.01,2013-09-24 17:46:00,
2013-09-24 12:51:00,70.4,56.8,29.87,East,89,12.0,17.0,62,0.00,,CLR,0.00,VWS V14.01,2013-09-24 17:51:00,
2013-09-24 12:56:00,70.1,55.1,29.87,East,86,10.0,19.0,59,0.00,,CLR,0.00,VWS V14.01,2013-09-24 17:56:00,
2013-09-24 13:00:00,66.5,55.2,29.86,East,100,9.0,18.0,67,0.00,,,0.00,VWS V14.01,2013-09-24 18:00:00,
2013-09-24 13:01:00,70.6,55.6,29.87,NE,50,4.0,4.0,59,0.00,,CLR,0.00,VWS V14.01,2013-09-24 18:01:00,
2013-09-24 13:06:00,71.1,57.0,29.87,East,90,7.0,14.0,61,0.00,,CLR,0.00,VWS V14.01,2013-09-24 18:06:00,
2013-09-24 13:11:00,71.6,54.1,29.86,ESE,105,16.0,19.0,54,0.00,,CLR,0.00,VWS V14.01,2013-09-24 18:11:00,
2013-09-24 13:15:00,71.7,54.2,29.86,ESE,108,14.0,21.0,54,0.00,,CLR,0.00,VWS V14.01,2013-09-24 18:15:00,
2013-09-24 13:20:00,72.2,55.2,29.86,ESE,108,11.0,23.0,55,0.00,,CLR,0.00,VWS V14.01,2013-09-24 18:20:00,
2013-09-24 13:25:00,72.4,55.3,29.86,East,82,15.0,23.0,55,0.00,,CLR,0.00,VWS V14.01,2013-09-24 18:25:00,
2013-09-24 13:30:00,72.1,55.6,29.86,ESE,115,9.0,9.0,56,0.00,,CLR,0.00,VWS V14.01,2013-09-24 18:30:00,
2013-09-24 13:36:00,72.0,54.5,29.86,ESE,108,12.0,18.0,54,0.00,,CLR,0.00,VWS V14.01,2013-09-24 18:36:00,
2013-09-24 13:40:00,72.3,54.2,29.86,East,97,17.0,20.0,53,0.00,,CLR,0.00,VWS V14.01,2013-09-24 18:40:00,
2013-09-24 13:45:00,71.9,55.4,29.85,ESE,108,14.0,20.0,56,0.00,,CLR,0.00,VWS V14.01,2013-09-24 18:45:00,
2013-09-24 13:50:00,71.2,53.7,29.86,SE,134,10.0,21.0,54,0.00,,CLR,0.00,VWS V14.01,2013-09-24 18:50:00,
2013-09-24 13:56:00,71.1,54.1,29.86,ENE,75,5.0,21.0,55,0.00,,CLR,0.00,VWS V14.01,2013-09-24 18:56:00,
2013-09-24 14:00:00,70.5,55.5,29.87,ESE,110,3.0,19.0,59,0.00,,,0.00,VWS V14.01,2013-09-24 19:00:00,
2013-09-24 14:01:00,71.0,54.0,29.86,SE,132,9.0,10.0,55,0.00,,CLR,0.00,VWS V14.01,2013-09-24 19:01:00,
2013-09-24 14:05:00,71.0,54.0,29.86,East,98,9.0,16.0,55,0.00,,CLR,0.00,VWS V14.01,2013-09-24 19:05:00,
2013-09-24 14:10:00,71.9,55.4,29.86,ESE,117,13.0,16.0,56,0.00,,CLR,0.00,VWS V14.01,2013-09-24 19:10:00,
2013-09-24 14:15:00,71.4,54.4,29.86,ESE,120,11.0,16.0,55,0.00,,CLR,0.00,VWS V14.01,2013-09-24 19:15:00,
2013-09-24 14:20:00,71.2,54.2,29.85,ESE,111,9.0,16.0,55,0.00,,CLR,0.00,VWS V14.01,2013-09-24 19:20:00,
2013-09-24 14:25:00,71.1,54.6,29.85,ESE,118,8.0,16.0,56,0.00,,CLR,0.00,VWS V14.01,2013-09-24 19:25:00,
2013-09-24 14:30:00,71.6,54.6,29.86,SSE,158,7.0,16.0,55,0.00,,CLR,0.00,VWS V14.01,2013-09-24 19:30:00,
2013-09-24 14:35:00,71.9,54.4,29.85,SE,134,8.0,14.0,54,0.00,,CLR,0.00,VWS V14.01,2013-09-24 19:35:00,
2013-09-24 14:40:00,72.3,54.7,29.85,ESE,112,11.0,14.0,54,0.00,,CLR,0.00,VWS V14.01,2013-09-24 19:40:00,
2013-09-24 14:45:00,72.0,55.0,29.85,SE,131,7.0,14.0,55,0.00,,CLR,0.00,VWS V14.01,2013-09-24 19:45:00,
2013-09-24 14:50:00,72.4,54.8,29.86,SE,131,5.0,14.0,54,0.00,,CLR,0.00,VWS V14.01,2013-09-24 19:50:00,
2013-09-24 14:55:00,72.5,54.9,29.86,SE,143,5.0,14.0,54,0.00,,CLR,0.00,VWS V14.01,2013-09-24 19:55:00,
2013-09-24 15:00:00,72.5,54.4,29.86,SE,125,8.0,14.0,53,0.00,,FEW049,0.00,VWS V14.01,2013-09-24 20:00:00,
2013-09-24 15:05:00,71.9,53.3,29.86,ESE,123,5.0,9.0,52,0.00,,FEW049,0.00,VWS V14.01,2013-09-24 20:05:00,
2013-09-24 15:10:00,71.6,53.6,29.86,ESE,115,4.0,9.0,53,0.00,,FEW049,0.00,VWS V14.01,2013-09-24 20:10:00,
2013-09-24 15:15:00,72.3,55.2,29.86,ESE,106,12.0,15.0,55,0.00,,FEW049,0.00,VWS V14.01,2013-09-24 20:15:00,
2013-09-24 15:20:00,71.9,53.9,29.86,ESE,109,7.0,15.0,53,0.00,,FEW049,0.00,VWS V14.01,2013-09-24 20:20:00,
2013-09-24 15:25:00,71.8,54.3,29.86,ESE,113,9.0,15.0,54,0.00,,FEW049,0.00,VWS V14.01,2013-09-24 20:25:00,
2013-09-24 15:30:00,71.6,54.6,29.86,East,101,11.0,15.0,55,0.00,,FEW049,0.00,VWS V14.01,2013-09-24 20:30:00,
2013-09-24 15:35:00,71.5,55.0,29.86,SE,134,5.0,14.0,56,0.00,,FEW049,0.00,VWS V14.01,2013-09-24 20:35:00,
2013-09-24 15:40:00,71.6,54.1,29.86,ESE,117,13.0,14.0,54,0.00,,FEW049,0.00,VWS V14.01,2013-09-24 20:40:00,
2013-09-24 15:45:00,72.0,54.5,29.86,ESE,116,11.0,14.0,54,0.00,,FEW049,0.00,VWS V14.01,2013-09-24 20:45:00,
2013-09-24 15:50:00,72.2,54.1,29.86,SE,145,5.0,14.0,53,0.00,,FEW049,0.00,VWS V14.01,2013-09-24 20:50:00,
2013-09-24 15:55:00,72.2,53.1,29.86,SE,125,5.0,14.0,51,0.00,,FEW049,0.00,VWS V14.01,2013-09-24 20:55:00,
2013-09-24 16:00:00,72.2,52.0,29.86,SE,137,3.0,14.0,49,0.00,,BKN049,0.00,VWS V14.01,2013-09-24 21:00:00,
2013-09-24 16:05:00,72.4,53.8,29.86,ESE,120,7.0,11.0,52,0.00,,BKN049,0.00,VWS V14.01,2013-09-24 21:05:00,
2013-09-24 16:10:00,72.4,53.8,29.86,South,186,3.0,11.0,52,0.00,,BKN049,0.00,VWS V14.01,2013-09-24 21:10:00,
2013-09-24 16:15:00,72.6,53.5,29.85,SE,139,6.0,12.0,51,0.00,,BKN049,0.00,VWS V14.01,2013-09-24 21:15:00,
2013-09-24 16:20:00,72.5,53.9,29.86,SSE,158,11.0,12.0,52,0.00,,BKN049,0.00,VWS V14.01,2013-09-24 21:20:00,
2013-09-24 16:25:00,72.5,53.4,29.86,SSE,160,9.0,12.0,51,0.00,,BKN049,0.00,VWS V14.01,2013-09-24 21:25:00,
2013-09-24 16:30:00,72.4,53.8,29.86,ESE,108,11.0,13.0,52,0.00,,BKN049,0.00,VWS V14.01,2013-09-24 21:30:00,
2013-09-24 16:35:00,71.9,53.3,29.86,SSE,148,7.0,12.0,52,0.00,,BKN049,0.00,VWS V14.01,2013-09-24 21:35:00,
2013-09-24 16:40:00,71.4,53.9,29.86,ESE,120,9.0,12.0,54,0.00,,BKN049,0.00,VWS V14.01,2013-09-24 21:40:00,
2013-09-24 16:45:00,70.8,53.8,29.86,SE,125,6.0,12.0,55,0.00,,BKN049,0.00,VWS V14.01,2013-09-24 21:45:00,
2013-09-24 16:50:00,70.6,54.6,29.86,SE,129,6.0,12.0,57,0.00,,BKN049,0.00,VWS V14.01,2013-09-24 21:50:00,
2013-09-24 16:55:00,70.2,54.8,29.86,ESE,104,4.0,12.0,58,0.00,,BKN049,0.00,VWS V14.01,2013-09-24 21:55:00,
2013-09-24 17:00:00,70.1,55.6,29.86,SE,128,3.0,12.0,60,0.00,,BKN049,0.00,VWS V14.01,2013-09-24 22:00:00,
2013-09-24 17:05:00,70.0,55.5,29.86,SE,125,5.0,7.0,60,0.00,,BKN049,0.00,VWS V14.01,2013-09-24 22:05:00,
2013-09-24 17:10:00,69.7,55.2,29.86,ESE,122,3.0,7.0,60,0.00,,BKN049,0.00,VWS V14.01,2013-09-24 22:10:00,
2013-09-24 17:15:00,70.0,54.6,29.86,SE,135,4.0,7.0,58,0.00,,BKN049,0.00,VWS V14.01,2013-09-24 22:15:00,
2013-09-24 17:20:00,70.6,54.2,29.86,SSE,153,6.0,7.0,56,0.00,,BKN049,0.00,VWS V14.01,2013-09-24 22:20:00,
2013-09-24 17:25:00,71.2,54.7,29.86,ESE,109,7.0,9.0,56,0.00,,BKN049,0.00,VWS V14.01,2013-09-24 22:25:00,
2013-09-24 17:30:00,71.5,54.0,29.87,ESE,113,7.0,9.0,54,0.00,,BKN049,0.00,VWS V14.01,2013-09-24 22:30:00,
2013-09-24 17:35:00,71.6,53.6,29.87,ESE,121,6.0,10.0,53,0.00,,BKN049,0.00,VWS V14.01,2013-09-24 22:35:00,
2013-09-24 17:40:00,71.6,53.1,29.87,ESE,123,7.0,10.0,52,0.00,,BKN049,0.00,VWS V14.01,2013-09-24 22:40:00,
2013-09-24 17:45:00,71.5,53.5,29.87,ESE,110,7.0,10.0,53,0.00,,BKN049,0.00,VWS V14.01,2013-09-24 22:45:00,
2013-09-24 17:50:00,71.4,53.9,29.87,SE,134,7.0,10.0,54,0.00,,BKN049,0.00,VWS V14.01,2013-09-24 22:50:00,
2013-09-24 17:55:00,71.2,54.2,29.87,ESE,120,5.0,10.0,55,0.00,,BKN049,0.00,VWS V14.01,2013-09-24 22:55:00,
2013-09-24 18:00:00,70.9,54.4,29.87,ESE,119,5.0,10.0,56,0.00,,SCT050,0.00,VWS V14.01,2013-09-24 23:00:00,
2013-09-24 18:05:00,70.7,54.2,29.87,SE,133,4.0,7.0,56,0.00,,SCT050,0.00,VWS V14.01,2013-09-24 23:05:00,
2013-09-24 18:10:00,70.6,54.6,29.87,SE,143,4.0,7.0,57,0.00,,SCT050,0.00,VWS V14.01,2013-09-24 23:10:00,
2013-09-24 18:15:00,70.4,54.5,29.87,SE,141,4.0,7.0,57,0.00,,SCT050,0.00,VWS V14.01,2013-09-24 23:15:00,
2013-09-24 18:20:00,70.3,55.3,29.87,SSE,150,2.0,7.0,59,0.00,,SCT050,0.00,VWS V14.01,2013-09-24 23:20:00,
2013-09-24 18:25:00,70.1,55.1,29.87,SE,140,3.0,7.0,59,0.00,,SCT050,0.00,VWS V14.01,2013-09-24 23:25:00,
2013-09-24 18:30:00,70.0,55.0,29.87,SE,134,2.0,7.0,59,0.00,,SCT050,0.00,VWS V14.01,2013-09-24 23:30:00,
2013-09-24 18:35:00,69.7,55.2,29.87,SE,139,2.0,2.0,60,0.00,,SCT050,0.00,VWS V14.01,2013-09-24 23:35:00,
2013-09-24 18:40:00,69.5,55.0,29.87,SSE,159,2.0,3.0,60,0.00,,SCT050,0.00,VWS V14.01,2013-09-24 23:40:00,
2013-09-24 18:45:00,69.0,55.0,29.87,SE,141,2.0,4.0,61,0.00,,SCT050,0.00,VWS V14.01,2013-09-24 23:45:00,
2013-09-24 18:50:00,68.4,55.3,29.87,SE,145,2.0,4.0,63,0.00,,SCT050,0.00,VWS V14.01,2013-09-24 23:50:00,
2013-09-24 18:55:00,67.7,55.1,29.87,ESE,118,2.0,4.0,64,0.00,,SCT050,0.00,VWS V14.01,2013-09-24 23:55:00,
2013-09-24 19:00:00,67.2,55.0,29.87,SE,131,2.0,4.0,65,0.00,,CLR,0.00,VWS V14.01,2013-09-25 00:00:00,
2013-09-24 19:05:00,66.6,54.9,29.87,SSE,157,1.0,2.0,66,0.00,,CLR,0.00,VWS V14.01,2013-09-25 00:05:00,
2013-09-24 19:10:00,66.1,54.4,29.87,SE,126,0.0,2.0,66,0.00,,CLR,0.00,VWS V14.01,2013-09-25 00:10:00,
2013-09-24 19:15:00,65.6,54.4,29.87,SE,138,0.0,2.0,67,0.00,,CLR,0.00,VWS V14.01,2013-09-25 00:15:00,
2013-09-24 19:20:00,65.2,54.4,29.87,SSE,165,0.0,2.0,68,0.00,,CLR,0.00,VWS V14.01,2013-09-25 00:20:00,
2013-09-24 19:25:00,65.0,54.2,29.87,SE,131,1.0,2.0,68,0.00,,CLR,0.00,VWS V14.01,2013-09-25 00:25:00,
2013-09-24 19:30:00,64.6,54.2,29.87,SE,131,0.0,2.0,69,0.00,,CLR,0.00,VWS V14.01,2013-09-25 00:30:00,
2013-09-24 19:35:00,64.3,53.9,29.87,ESE,118,0.0,0.0,69,0.00,,CLR,0.00,VWS V14.01,2013-09-25 00:35:00,
2013-09-24 19:40:00,63.9,53.9,29.87,ESE,108,2.0,2.0,70,0.00,,CLR,0.00,VWS V14.01,2013-09-25 00:40:00,
2013-09-24 19:45:00,64.1,53.7,29.87,East,91,1.0,2.0,69,0.00,,CLR,0.00,VWS V14.01,2013-09-25 00:45:00,
2013-09-24 19:50:00,63.8,54.2,29.88,ENE,68,0.0,2.0,71,0.00,,CLR,0.00,VWS V14.01,2013-09-25 00:50:00,
2013-09-24 19:55:00,62.8,53.7,29.88,ENE,72,0.0,2.0,72,0.00,,CLR,0.00,VWS V14.01,2013-09-25 00:55:00,
2013-09-24 20:00:00,62.6,53.5,29.88,ESE,115,0.0,2.0,72,0.00,,BKN050,0.00,VWS V14.01,2013-09-25 01:00:00,
2013-09-24 20:05:00,63.1,53.6,29.88,ESE,113,1.0,4.0,71,0.00,,BKN050,0.00,VWS V14.01,2013-09-25 01:05:00,
2013-09-24 20:10:00,63.1,53.6,29.88,East,100,2.0,4.0,71,0.00,,BKN050,0.00,VWS V14.01,2013-09-25 01:10:00,
2013-09-24 20:15:00,63.0,53.5,29.88,East,81,0.0,4.0,71,0.00,,BKN050,0.00,VWS V14.01,2013-09-25 01:15:00,
2013-09-24 20:20:00,62.8,53.3,29.88,ESE,110,0.0,4.0,71,0.00,,BKN050,0.00,VWS V14.01,2013-09-25 01:20:00,
2013-09-24 20:25:00,62.7,53.5,29.88,East,94,0.0,4.0,72,0.00,,BKN050,0.00,VWS V14.01,2013-09-25 01:25:00,
2013-09-24 20:30:00,62.4,53.3,29.88,East,96,1.0,4.0,72,0.00,,BKN050,0.00,VWS V14.01,2013-09-25 01:30:00,
2013-09-24 20:35:00,62.4,53.3,29.88,ESE,105,2.0,3.0,72,0.00,,BKN050,0.00,VWS V14.01,2013-09-25 01:35:00,
2013-09-24 20:40:00,62.4,52.9,29.88,East,94,2.0,5.0,71,0.00,,BKN050,0.00,VWS V14.01,2013-09-25 01:40:00,
2013-09-24 20:45:00,62.6,53.1,29.88,East,101,0.0,5.0,71,0.00,,BKN050,0.00,VWS V14.01,2013-09-25 01:45:00,
2013-09-24 20:50:00,62.5,53.0,29.88,East,87,0.0,5.0,71,0.00,,BKN050,0.00,VWS V14.01,2013-09-25 01:50:00,
2013-09-24 20:55:00,62.4,53.3,29.88,East,92,1.0,5.0,72,0.00,,BKN050,0.00,VWS V14.01,2013-09-25 01:55:00,
2013-09-24 21:00:00,62.2,53.1,29.89,East,97,0.0,5.0,72,0.00,,CLR,0.00,VWS V14.01,2013-09-25 02:00:00,
2013-09-24 21:05:00,61.8,53.1,29.89,East,97,0.0,0.0,73,0.00,,CLR,0.00,VWS V14.01,2013-09-25 02:05:00,
2013-09-24 21:10:00,61.2,52.9,29.89,East,92,0.0,0.0,74,0.00,,CLR,0.00,VWS V14.01,2013-09-25 02:10:00,
2013-09-24 21:15:00,60.8,52.8,29.89,East,91,0.0,0.0,75,0.00,,CLR,0.00,VWS V14.01,2013-09-25 02:15:00,
2013-09-24 21:20:00,60.5,52.9,29.89,East,91,0.0,0.0,76,0.00,,CLR,0.00,VWS V14.01,2013-09-25 02:20:00,
2013-09-24 21:25:00,60.1,52.9,29.89,East,92,0.0,0.0,77,0.00,,CLR,0.00,VWS V14.01,2013-09-25 02:25:00,
2013-09-24 21:30:00,59.7,52.8,29.89,East,91,0.0,0.0,78,0.00,,CLR,0.00,VWS V14.01,2013-09-25 02:30:00,
2013-09-24 21:35:00,59.3,53.1,29.89,East,91,0.0,0.0,80,0.00,,CLR,0.00,VWS V14.01,2013-09-25 02:35:00,
2013-09-24 21:40:00,59.1,53.3,29.89,East,91,0.0,0.0,81,0.00,,CLR,0.00,VWS V14.01,2013-09-25 02:40:00,
2013-09-24 21:45:00,59.0,53.2,29.89,East,92,0.0,0.0,81,0.00,,CLR,0.00,VWS V14.01,2013-09-25 02:45:00,
2013-09-24 21:50:00,59.0,53.2,29.89,East,92,0.0,0.0,81,0.00,,CLR,0.00,VWS V14.01,2013-09-25 02:50:00,
2013-09-24 21:55:00,59.3,53.5,29.89,East,90,0.0,0.0,81,0.00,,CLR,0.00,VWS V14.01,2013-09-25 02:55:00,
2013-09-24 22:00:00,59.4,53.2,29.89,East,91,0.0,1.0,80,0.00,,CLR,0.00,VWS V14.01,2013-09-25 03:00:00,
2013-09-24 22:05:00,59.4,53.2,29.89,East,91,0.0,0.0,80,0.00,,CLR,0.00,VWS V14.01,2013-09-25 03:05:00,
2013-09-24 22:10:00,59.4,53.2,29.89,ENE,74,0.0,1.0,80,0.00,,CLR,0.00,VWS V14.01,2013-09-25 03:10:00,
2013-09-24 22:15:00,59.4,53.2,29.89,ENE,61,0.0,1.0,80,0.00,,CLR,0.00,VWS V14.01,2013-09-25 03:15:00,
2013-09-24 22:20:00,59.3,53.1,29.89,ENE,61,0.0,1.0,80,0.00,,CLR,0.00,VWS V14.01,2013-09-25 03:20:00,
2013-09-24 22:25:00,59.2,53.4,29.89,East,82,0.0,2.0,81,0.00,,CLR,0.00,VWS V14.01,2013-09-25 03:25:00,
2013-09-24 22:30:00,59.2,53.0,29.89,SE,135,0.0,2.0,80,0.00,,CLR,0.00,VWS V14.01,2013-09-25 03:30:00,
2013-09-24 22:35:00,59.1,53.3,29.89,SE,135,0.0,0.0,81,0.00,,CLR,0.00,VWS V14.01,2013-09-25 03:35:00,
2013-09-24 22:40:00,59.0,53.2,29.89,East,100,0.0,0.0,81,0.00,,CLR,0.00,VWS V14.01,2013-09-25 03:40:00,
2013-09-24 22:45:00,58.8,53.0,29.89,East,100,0.0,0.0,81,0.00,,CLR,0.00,VWS V14.01,2013-09-25 03:45:00,
2013-09-24 22:50:00,58.8,53.0,29.89,ENE,77,0.0,1.0,81,0.00,,CLR,0.00,VWS V14.01,2013-09-25 03:50:00,
2013-09-24 22:55:00,58.8,53.0,29.89,ESE,118,0.0,1.0,81,0.00,,CLR,0.00,VWS V14.01,2013-09-25 03:55:00,
2013-09-24 23:00:00,58.8,53.0,29.89,ENE,78,0.0,1.0,81,0.00,,CLR,0.00,VWS V14.01,2013-09-25 04:00:00,
2013-09-24 23:01:00,58.8,53.0,29.89,ENE,77,0.0,0.0,81,0.00,,CLR,0.00,VWS V14.01,2013-09-25 04:01:00,
2013-09-24 23:06:00,58.7,52.9,29.89,ESE,103,0.0,1.0,81,0.00,,CLR,0.00,VWS V14.01,2013-09-25 04:06:00,
2013-09-24 23:11:00,58.6,52.8,29.89,ESE,104,0.0,1.0,81,0.00,,CLR,0.00,VWS V14.01,2013-09-25 04:11:00,
2013-09-24 23:16:00,58.7,52.9,29.89,ESE,106,2.0,2.0,81,0.00,,CLR,0.00,VWS V14.01,2013-09-25 04:16:00,
2013-09-24 23:21:00,58.8,53.0,29.89,ESE,102,0.0,3.0,81,0.00,,CLR,0.00,VWS V14.01,2013-09-25 04:21:00,
2013-09-24 23:26:00,58.6,52.8,29.89,ENE,73,0.0,3.0,81,0.00,,CLR,0.00,VWS V14.01,2013-09-25 04:26:00,
2013-09-24 23:30:00,59.2,53.0,29.89,SE,135,0.0,2.0,80,0.00,,,0.00,VWS V14.01,2013-09-25 04:30:00,
2013-09-24 23:31:00,58.4,52.6,29.89,ESE,110,0.0,0.0,81,0.00,,CLR,0.00,VWS V14.01,2013-09-25 04:31:00,
2013-09-24 23:36:00,58.3,52.8,29.89,ESE,109,0.0,1.0,82,0.00,,CLR,0.00,VWS V14.01,2013-09-25 04:36:00,
2013-09-24 23:41:00,58.2,52.7,29.89,ESE,102,1.0,2.0,82,0.00,,CLR,0.00,VWS V14.01,2013-09-25 04:41:00,
2013-09-24 23:46:00,58.2,52.4,29.89,ESE,103,0.0,2.0,81,0.00,,CLR,0.00,VWS V14.01,2013-09-25 04:46:00,
2013-09-24 23:51:00,58.2,52.4,29.89,ESE,105,1.0,2.0,81,0.00,,CLR,0.00,VWS V14.01,2013-09-25 04:51:00,
2013-09-24 23:56:00,58.1,52.3,29.89,ESE,108,1.0,2.0,81,0.00,,CLR,0.00,VWS V14.01,2013-09-25 04:56:00,